sensor_id;sensor_type;location;lat;lon;timestamp;temperature;humidity
18252;DHT22;26917;52.328;20.878;2022-11-11T00:02:06;5.90;99.90
18252;DHT22;26917;52.328;20.878;2022-11-11T00:05:13;6.00;99.90
18252;DHT22;26917;52.328;20.878;2022-11-11T00:08:26;6.00;99.90
18252;DHT22;26917;52.328;20.878;2022-11-11T00:11:55;6.10;99.90
18252;DHT22;26917;52.328;20.878;2022-11-11T00:14:58;6.20;99.90
18252;DHT22;26917;52.328;20.878;2022-11-11T00:17:45;6.20;99.90
18252;DHT22;26917;52.328;20.878;2022-11-11T00:20:57;6.40;99.90
18252;DHT22;26917;52.328;20.878;2022-11-11T00:24:18;6.50;99.90
18252;DHT22;26917;52.328;20.878;2022-11-11T00:27:34;6.60;99.90
18252;DHT22;26917;52.328;20.878;2022-11-11T00:30:21;6.10;99.90
18252;DHT22;26917;52.328;20.878;2022-11-11T00:33:08;6.40;99.90
18252;DHT22;26917;52.328;20.878;2022-11-11T00:35:58;6.40;99.90
18252;DHT22;26917;52.328;20.878;2022-11-11T00:38:45;6.30;99.90
18252;DHT22;26917;52.328;20.878;2022-11-11T00:41:33;6.30;99.90
18252;DHT22;26917;52.328;20.878;2022-11-11T00:44:40;6.40;99.90
18252;DHT22;26917;52.328;20.878;2022-11-11T00:47:27;6.40;99.90
18252;DHT22;26917;52.328;20.878;2022-11-11T00:50:45;6.50;99.90
18252;DHT22;26917;52.328;20.878;2022-11-11T00:53:46;6.50;99.90
18252;DHT22;26917;52.328;20.878;2022-11-11T00:56:37;6.60;99.90
18252;DHT22;26917;52.328;20.878;2022-11-11T00:59:25;6.70;99.90
18252;DHT22;26917;52.328;20.878;2022-11-11T01:02:12;6.80;99.90
18252;DHT22;26917;52.328;20.878;2022-11-11T01:05:09;6.80;99.90
18252;DHT22;26917;52.328;20.878;2022-11-11T01:07:56;6.90;99.90
18252;DHT22;26917;52.328;20.878;2022-11-11T01:11:09;6.80;99.90
18252;DHT22;26917;52.328;20.878;2022-11-11T01:13:57;6.80;99.90
18252;DHT22;26917;52.328;20.878;2022-11-11T01:16:48;6.90;99.90
18252;DHT22;26917;52.328;20.878;2022-11-11T01:19:35;6.90;99.90
18252;DHT22;26917;52.328;20.878;2022-11-11T01:22:22;7.00;99.90
18252;DHT22;26917;52.328;20.878;2022-11-11T01:25:09;7.00;99.90
18252;DHT22;26917;52.328;20.878;2022-11-11T01:27:57;7.00;99.90
18252;DHT22;26917;52.328;20.878;2022-11-11T01:30:45;7.10;99.90
18252;DHT22;26917;52.328;20.878;2022-11-11T01:33:32;7.10;99.90
18252;DHT22;26917;52.328;20.878;2022-11-11T01:36:34;7.10;99.90
18252;DHT22;26917;52.328;20.878;2022-11-11T01:43:20;7.10;99.90
18252;DHT22;26917;52.328;20.878;2022-11-11T01:46:19;7.10;99.90
18252;DHT22;26917;52.328;20.878;2022-11-11T01:49:24;7.10;99.90
18252;DHT22;26917;52.328;20.878;2022-11-11T01:52:13;7.20;99.90
18252;DHT22;26917;52.328;20.878;2022-11-11T01:55:06;7.30;99.90
18252;DHT22;26917;52.328;20.878;2022-11-11T01:58:17;7.10;99.90
18252;DHT22;26917;52.328;20.878;2022-11-11T02:01:43;7.00;99.90
18252;DHT22;26917;52.328;20.878;2022-11-11T02:04:31;7.00;99.90
18252;DHT22;26917;52.328;20.878;2022-11-11T02:07:43;6.90;99.90
18252;DHT22;26917;52.328;20.878;2022-11-11T02:10:32;6.80;99.90
18252;DHT22;26917;52.328;20.878;2022-11-11T02:17:25;6.60;99.90
18252;DHT22;26917;52.328;20.878;2022-11-11T02:20:14;6.60;99.90
18252;DHT22;26917;52.328;20.878;2022-11-11T02:23:06;6.50;99.90
18252;DHT22;26917;52.328;20.878;2022-11-11T02:25:56;6.50;99.90
18252;DHT22;26917;52.328;20.878;2022-11-11T02:28:44;6.50;99.90
18252;DHT22;26917;52.328;20.878;2022-11-11T02:31:32;6.50;99.90
18252;DHT22;26917;52.328;20.878;2022-11-11T02:34:19;6.40;99.90
18252;DHT22;26917;52.328;20.878;2022-11-11T02:37:08;6.40;99.90
18252;DHT22;26917;52.328;20.878;2022-11-11T02:39:59;6.40;99.90
18252;DHT22;26917;52.328;20.878;2022-11-11T02:46:39;6.40;99.90
18252;DHT22;26917;52.328;20.878;2022-11-11T02:49:31;6.30;99.90
18252;DHT22;26917;52.328;20.878;2022-11-11T02:52:19;6.30;99.90
18252;DHT22;26917;52.328;20.878;2022-11-11T02:55:11;6.50;99.90
18252;DHT22;26917;52.328;20.878;2022-11-11T02:57:59;6.20;99.90
18252;DHT22;26917;52.328;20.878;2022-11-11T03:00:47;6.20;99.90
18252;DHT22;26917;52.328;20.878;2022-11-11T03:03:35;6.30;99.90
18252;DHT22;26917;52.328;20.878;2022-11-11T03:06:22;6.30;99.90
18252;DHT22;26917;52.328;20.878;2022-11-11T03:09:09;6.20;99.90
18252;DHT22;26917;52.328;20.878;2022-11-11T03:11:57;6.30;99.90
18252;DHT22;26917;52.328;20.878;2022-11-11T03:14:49;6.10;99.90
18252;DHT22;26917;52.328;20.878;2022-11-11T03:18:04;6.10;99.90
18252;DHT22;26917;52.328;20.878;2022-11-11T03:20:54;6.10;99.90
18252;DHT22;26917;52.328;20.878;2022-11-11T03:24:19;6.20;99.90
18252;DHT22;26917;52.328;20.878;2022-11-11T03:27:06;6.20;99.90
18252;DHT22;26917;52.328;20.878;2022-11-11T03:29:53;6.40;99.90
18252;DHT22;26917;52.328;20.878;2022-11-11T03:32:44;6.30;99.90
18252;DHT22;26917;52.328;20.878;2022-11-11T03:35:42;6.30;99.90
18252;DHT22;26917;52.328;20.878;2022-11-11T03:38:30;6.30;99.90
18252;DHT22;26917;52.328;20.878;2022-11-11T03:41:17;6.30;99.90
18252;DHT22;26917;52.328;20.878;2022-11-11T03:45:43;6.40;99.90
18252;DHT22;26917;52.328;20.878;2022-11-11T03:48:04;6.50;99.90
18252;DHT22;26917;52.328;20.878;2022-11-11T03:54:55;6.70;99.90
18252;DHT22;26917;52.328;20.878;2022-11-11T03:57:49;6.80;99.90
18252;DHT22;26917;52.328;20.878;2022-11-11T04:05:12;6.90;99.90
18252;DHT22;26917;52.328;20.878;2022-11-11T04:08:35;6.90;99.90
18252;DHT22;26917;52.328;20.878;2022-11-11T04:12:05;6.90;99.90
18252;DHT22;26917;52.328;20.878;2022-11-11T04:15:02;7.00;99.90
18252;DHT22;26917;52.328;20.878;2022-11-11T04:21:56;6.90;99.90
18252;DHT22;26917;52.328;20.878;2022-11-11T04:28:19;7.00;99.90
18252;DHT22;26917;52.328;20.878;2022-11-11T04:31:44;7.10;99.90
18252;DHT22;26917;52.328;20.878;2022-11-11T04:35:21;7.10;99.90
18252;DHT22;26917;52.328;20.878;2022-11-11T04:38:30;7.20;99.90
18252;DHT22;26917;52.328;20.878;2022-11-11T04:41:50;7.10;99.90
18252;DHT22;26917;52.328;20.878;2022-11-11T04:45:16;7.10;99.90
18252;DHT22;26917;52.328;20.878;2022-11-11T04:48:20;7.20;99.90
18252;DHT22;26917;52.328;20.878;2022-11-11T04:51:08;7.30;99.90
18252;DHT22;26917;52.328;20.878;2022-11-11T04:54:13;7.20;99.90
18252;DHT22;26917;52.328;20.878;2022-11-11T04:57:00;7.20;99.90
18252;DHT22;26917;52.328;20.878;2022-11-11T04:59:46;7.20;99.90
18252;DHT22;26917;52.328;20.878;2022-11-11T05:02:55;7.20;99.90
18252;DHT22;26917;52.328;20.878;2022-11-11T05:06:17;7.30;99.90
18252;DHT22;26917;52.328;20.878;2022-11-11T05:09:29;7.20;99.90
18252;DHT22;26917;52.328;20.878;2022-11-11T05:12:16;7.20;99.90
18252;DHT22;26917;52.328;20.878;2022-11-11T05:15:26;7.20;99.90
18252;DHT22;26917;52.328;20.878;2022-11-11T05:18:43;7.30;99.90
18252;DHT22;26917;52.328;20.878;2022-11-11T05:22:09;7.40;99.90
18252;DHT22;26917;52.328;20.878;2022-11-11T05:25:05;7.40;99.90
18252;DHT22;26917;52.328;20.878;2022-11-11T05:28:10;7.40;99.90
18252;DHT22;26917;52.328;20.878;2022-11-11T05:31:00;7.40;99.90
18252;DHT22;26917;52.328;20.878;2022-11-11T05:33:53;7.40;99.90
18252;DHT22;26917;52.328;20.878;2022-11-11T05:36:49;7.50;99.90
18252;DHT22;26917;52.328;20.878;2022-11-11T05:40:03;7.40;99.90
18252;DHT22;26917;52.328;20.878;2022-11-11T05:42:55;7.50;99.90
18252;DHT22;26917;52.328;20.878;2022-11-11T05:45:54;7.50;99.90
18252;DHT22;26917;52.328;20.878;2022-11-11T05:49:10;7.50;99.90
18252;DHT22;26917;52.328;20.878;2022-11-11T05:52:48;7.50;99.90
18252;DHT22;26917;52.328;20.878;2022-11-11T05:55:36;7.50;99.90
18252;DHT22;26917;52.328;20.878;2022-11-11T05:58:36;7.60;99.90
18252;DHT22;26917;52.328;20.878;2022-11-11T06:01:45;7.50;99.90
18252;DHT22;26917;52.328;20.878;2022-11-11T06:05:14;7.50;99.90
18252;DHT22;26917;52.328;20.878;2022-11-11T06:08:13;7.60;99.90
18252;DHT22;26917;52.328;20.878;2022-11-11T06:11:03;7.70;99.90
18252;DHT22;26917;52.328;20.878;2022-11-11T06:14:11;7.60;99.90
18252;DHT22;26917;52.328;20.878;2022-11-11T06:17:09;7.60;99.90
18252;DHT22;26917;52.328;20.878;2022-11-11T06:19:56;7.60;99.90
18252;DHT22;26917;52.328;20.878;2022-11-11T06:23:00;7.60;99.90
18252;DHT22;26917;52.328;20.878;2022-11-11T06:25:50;7.70;99.90
18252;DHT22;26917;52.328;20.878;2022-11-11T06:29:41;7.80;99.90
18252;DHT22;26917;52.328;20.878;2022-11-11T06:32:30;7.70;99.90
18252;DHT22;26917;52.328;20.878;2022-11-11T06:35:25;7.70;99.90
18252;DHT22;26917;52.328;20.878;2022-11-11T06:45:19;7.80;99.90
18252;DHT22;26917;52.328;20.878;2022-11-11T06:48:09;7.70;99.90
18252;DHT22;26917;52.328;20.878;2022-11-11T06:51:09;7.80;99.90
18252;DHT22;26917;52.328;20.878;2022-11-11T07:01:41;7.90;99.90
18252;DHT22;26917;52.328;20.878;2022-11-11T07:04:54;7.90;99.90
18252;DHT22;26917;52.328;20.878;2022-11-11T07:07:45;7.80;99.90
18252;DHT22;26917;52.328;20.878;2022-11-11T07:11:07;7.90;99.90
18252;DHT22;26917;52.328;20.878;2022-11-11T07:21:21;7.90;99.90
18252;DHT22;26917;52.328;20.878;2022-11-11T07:24:28;7.90;99.90
18252;DHT22;26917;52.328;20.878;2022-11-11T07:27:15;8.00;99.90
18252;DHT22;26917;52.328;20.878;2022-11-11T07:30:03;8.00;99.90
18252;DHT22;26917;52.328;20.878;2022-11-11T07:36:11;8.10;99.90
18252;DHT22;26917;52.328;20.878;2022-11-11T07:39:06;8.10;99.90
18252;DHT22;26917;52.328;20.878;2022-11-11T07:41:53;8.10;99.90
18252;DHT22;26917;52.328;20.878;2022-11-11T07:45:09;8.30;99.90
18252;DHT22;26917;52.328;20.878;2022-11-11T07:51:55;8.20;99.90
18252;DHT22;26917;52.328;20.878;2022-11-11T07:54:51;8.30;99.90
18252;DHT22;26917;52.328;20.878;2022-11-11T07:57:41;8.30;99.90
18252;DHT22;26917;52.328;20.878;2022-11-11T08:00:53;8.40;99.90
18252;DHT22;26917;52.328;20.878;2022-11-11T08:03:48;8.40;99.90
18252;DHT22;26917;52.328;20.878;2022-11-11T08:06:35;8.40;99.90
18252;DHT22;26917;52.328;20.878;2022-11-11T08:09:22;8.40;99.90
18252;DHT22;26917;52.328;20.878;2022-11-11T08:12:12;8.50;99.90
18252;DHT22;26917;52.328;20.878;2022-11-11T08:16:52;8.50;99.90
18252;DHT22;26917;52.328;20.878;2022-11-11T08:19:38;8.60;99.90
18252;DHT22;26917;52.328;20.878;2022-11-11T08:23:08;8.70;99.90
18252;DHT22;26917;52.328;20.878;2022-11-11T08:27:15;8.80;99.90
18252;DHT22;26917;52.328;20.878;2022-11-11T08:30:54;8.90;99.90
18252;DHT22;26917;52.328;20.878;2022-11-11T08:35:08;9.00;99.90
18252;DHT22;26917;52.328;20.878;2022-11-11T08:38:44;9.10;99.90
18252;DHT22;26917;52.328;20.878;2022-11-11T08:42:14;9.10;99.90
18252;DHT22;26917;52.328;20.878;2022-11-11T08:45:08;9.20;99.90
18252;DHT22;26917;52.328;20.878;2022-11-11T08:48:35;9.20;99.90
18252;DHT22;26917;52.328;20.878;2022-11-11T08:51:29;9.30;99.90
18252;DHT22;26917;52.328;20.878;2022-11-11T08:59:19;9.40;99.90
18252;DHT22;26917;52.328;20.878;2022-11-11T09:27:43;9.90;99.90
18252;DHT22;26917;52.328;20.878;2022-11-11T09:31:16;10.00;99.90
18252;DHT22;26917;52.328;20.878;2022-11-11T09:34:48;10.10;99.90
18252;DHT22;26917;52.328;20.878;2022-11-11T09:38:08;10.00;99.90
18252;DHT22;26917;52.328;20.878;2022-11-11T09:45:28;10.10;99.90
18252;DHT22;26917;52.328;20.878;2022-11-11T10:00:26;10.10;99.90
18252;DHT22;26917;52.328;20.878;2022-11-11T10:20:03;10.20;99.90
18252;DHT22;26917;52.328;20.878;2022-11-11T10:32:02;10.30;99.90
18252;DHT22;26917;52.328;20.878;2022-11-11T10:45:57;10.50;99.90
18252;DHT22;26917;52.328;20.878;2022-11-11T10:54:29;10.60;99.90
18252;DHT22;26917;52.328;20.878;2022-11-11T10:57:39;10.70;99.90
18252;DHT22;26917;52.328;20.878;2022-11-11T11:08:46;10.70;99.90
18252;DHT22;26917;52.328;20.878;2022-11-11T11:12:08;10.70;99.90
18252;DHT22;26917;52.328;20.878;2022-11-11T11:15:23;10.80;99.90
18252;DHT22;26917;52.328;20.878;2022-11-11T11:22:15;10.80;99.90
18252;DHT22;26917;52.328;20.878;2022-11-11T11:25:20;10.80;99.90
18252;DHT22;26917;52.328;20.878;2022-11-11T11:32:15;10.80;99.90
18252;DHT22;26917;52.328;20.878;2022-11-11T11:35:38;10.80;99.90
18252;DHT22;26917;52.328;20.878;2022-11-11T11:39:07;10.80;99.90
18252;DHT22;26917;52.328;20.878;2022-11-11T11:43:01;10.90;99.90
18252;DHT22;26917;52.328;20.878;2022-11-11T12:06:38;10.90;99.90
18252;DHT22;26917;52.328;20.878;2022-11-11T12:09:45;10.90;99.90
18252;DHT22;26917;52.328;20.878;2022-11-11T12:17:46;10.90;99.90
18252;DHT22;26917;52.328;20.878;2022-11-11T12:22:06;11.00;99.90
18252;DHT22;26917;52.328;20.878;2022-11-11T12:25:36;11.00;99.90
18252;DHT22;26917;52.328;20.878;2022-11-11T12:43:24;10.90;99.90
18252;DHT22;26917;52.328;20.878;2022-11-11T12:46:25;10.90;99.90
18252;DHT22;26917;52.328;20.878;2022-11-11T13:07:04;10.80;99.90
18252;DHT22;26917;52.328;20.878;2022-11-11T13:14:26;10.70;99.90
18252;DHT22;26917;52.328;20.878;2022-11-11T13:17:58;10.70;99.90
18252;DHT22;26917;52.328;20.878;2022-11-11T13:26:15;10.80;99.90
18252;DHT22;26917;52.328;20.878;2022-11-11T13:33:15;10.70;99.90
18252;DHT22;26917;52.328;20.878;2022-11-11T13:41:09;10.60;99.90
18252;DHT22;26917;52.328;20.878;2022-11-11T13:44:20;10.60;99.90
18252;DHT22;26917;52.328;20.878;2022-11-11T13:47:51;10.60;99.90
18252;DHT22;26917;52.328;20.878;2022-11-11T13:51:24;10.60;99.90
18252;DHT22;26917;52.328;20.878;2022-11-11T13:58:36;10.50;99.90
18252;DHT22;26917;52.328;20.878;2022-11-11T14:06:08;10.50;99.90
18252;DHT22;26917;52.328;20.878;2022-11-11T14:10:05;10.50;99.90
18252;DHT22;26917;52.328;20.878;2022-11-11T14:13:47;10.40;99.90
18252;DHT22;26917;52.328;20.878;2022-11-11T14:20:38;10.40;99.90
18252;DHT22;26917;52.328;20.878;2022-11-11T14:23:53;10.40;99.90
18252;DHT22;26917;52.328;20.878;2022-11-11T14:26:40;10.30;99.90
18252;DHT22;26917;52.328;20.878;2022-11-11T14:29:55;10.30;99.90
18252;DHT22;26917;52.328;20.878;2022-11-11T14:32:58;10.30;99.90
18252;DHT22;26917;52.328;20.878;2022-11-11T14:36:11;10.30;99.90
18252;DHT22;26917;52.328;20.878;2022-11-11T14:39:46;10.30;99.90
18252;DHT22;26917;52.328;20.878;2022-11-11T14:42:46;10.20;99.90
18252;DHT22;26917;52.328;20.878;2022-11-11T14:50:06;9.80;99.90
18252;DHT22;26917;52.328;20.878;2022-11-11T14:53:41;10.10;99.90
18252;DHT22;26917;52.328;20.878;2022-11-11T14:57:09;10.10;99.90
18252;DHT22;26917;52.328;20.878;2022-11-11T15:00:25;10.00;99.90
18252;DHT22;26917;52.328;20.878;2022-11-11T15:03:23;10.00;99.90
18252;DHT22;26917;52.328;20.878;2022-11-11T15:06:59;9.90;99.90
18252;DHT22;26917;52.328;20.878;2022-11-11T15:14:07;9.70;99.90
18252;DHT22;26917;52.328;20.878;2022-11-11T15:17:17;9.80;99.90
18252;DHT22;26917;52.328;20.878;2022-11-11T15:24:09;9.80;99.90
18252;DHT22;26917;52.328;20.878;2022-11-11T15:27:35;9.90;99.90
18252;DHT22;26917;52.328;20.878;2022-11-11T15:35:07;9.90;99.90
18252;DHT22;26917;52.328;20.878;2022-11-11T15:38:05;9.90;99.90
18252;DHT22;26917;52.328;20.878;2022-11-11T15:41:36;10.00;99.90
18252;DHT22;26917;52.328;20.878;2022-11-11T15:53:11;10.00;99.90
18252;DHT22;26917;52.328;20.878;2022-11-11T16:00:23;9.90;99.90
18252;DHT22;26917;52.328;20.878;2022-11-11T16:07:47;10.00;99.90
18252;DHT22;26917;52.328;20.878;2022-11-11T16:11:17;10.00;99.90
18252;DHT22;26917;52.328;20.878;2022-11-11T16:14:22;10.00;99.90
18252;DHT22;26917;52.328;20.878;2022-11-11T16:17:29;10.00;99.90
18252;DHT22;26917;52.328;20.878;2022-11-11T16:20:52;10.00;99.90
18252;DHT22;26917;52.328;20.878;2022-11-11T16:23:50;10.00;99.90
18252;DHT22;26917;52.328;20.878;2022-11-11T16:26:40;10.00;99.90
18252;DHT22;26917;52.328;20.878;2022-11-11T16:29:36;10.00;99.90
18252;DHT22;26917;52.328;20.878;2022-11-11T16:32:34;10.00;99.90
18252;DHT22;26917;52.328;20.878;2022-11-11T16:35:26;10.00;99.90
18252;DHT22;26917;52.328;20.878;2022-11-11T16:38:29;10.00;99.90
18252;DHT22;26917;52.328;20.878;2022-11-11T16:41:28;10.10;99.90
18252;DHT22;26917;52.328;20.878;2022-11-11T16:44:32;10.00;99.90
18252;DHT22;26917;52.328;20.878;2022-11-11T16:47:51;10.00;99.90
18252;DHT22;26917;52.328;20.878;2022-11-11T16:50:56;10.00;99.90
18252;DHT22;26917;52.328;20.878;2022-11-11T16:54:20;10.00;99.90
18252;DHT22;26917;52.328;20.878;2022-11-11T16:57:33;10.10;99.90
18252;DHT22;26917;52.328;20.878;2022-11-11T17:00:32;10.10;99.90
18252;DHT22;26917;52.328;20.878;2022-11-11T17:03:52;10.10;99.90
18252;DHT22;26917;52.328;20.878;2022-11-11T17:06:52;10.10;99.90
18252;DHT22;26917;52.328;20.878;2022-11-11T17:09:50;10.10;99.90
18252;DHT22;26917;52.328;20.878;2022-11-11T17:12:40;10.00;99.90
18252;DHT22;26917;52.328;20.878;2022-11-11T17:16:09;10.00;99.90
18252;DHT22;26917;52.328;20.878;2022-11-11T17:19:13;10.00;99.90
18252;DHT22;26917;52.328;20.878;2022-11-11T17:22:43;10.10;99.90
18252;DHT22;26917;52.328;20.878;2022-11-11T17:26:07;10.10;99.90
18252;DHT22;26917;52.328;20.878;2022-11-11T17:28:58;10.00;99.90
18252;DHT22;26917;52.328;20.878;2022-11-11T17:34:29;10.00;99.90
18252;DHT22;26917;52.328;20.878;2022-11-11T17:40:23;10.10;99.90
18252;DHT22;26917;52.328;20.878;2022-11-11T17:43:21;10.00;99.90
18252;DHT22;26917;52.328;20.878;2022-11-11T17:46:37;10.00;99.90
18252;DHT22;26917;52.328;20.878;2022-11-11T17:54:11;10.00;99.90
18252;DHT22;26917;52.328;20.878;2022-11-11T18:01:51;10.00;99.90
18252;DHT22;26917;52.328;20.878;2022-11-11T18:14:12;9.90;99.90
18252;DHT22;26917;52.328;20.878;2022-11-11T18:21:13;9.90;99.90
18252;DHT22;26917;52.328;20.878;2022-11-11T18:28:35;9.80;99.90
18252;DHT22;26917;52.328;20.878;2022-11-11T18:35:10;9.80;99.90
18252;DHT22;26917;52.328;20.878;2022-11-11T18:38:28;9.80;99.90
18252;DHT22;26917;52.328;20.878;2022-11-11T18:49:17;9.60;99.90
18252;DHT22;26917;52.328;20.878;2022-11-11T19:10:22;9.50;99.90
18252;DHT22;26917;52.328;20.878;2022-11-11T19:13:42;9.50;99.90
18252;DHT22;26917;52.328;20.878;2022-11-11T19:17:04;9.40;99.90
18252;DHT22;26917;52.328;20.878;2022-11-11T19:20:18;9.50;99.90
18252;DHT22;26917;52.328;20.878;2022-11-11T19:23:08;9.40;99.90
18252;DHT22;26917;52.328;20.878;2022-11-11T19:31:18;9.50;99.90
18252;DHT22;26917;52.328;20.878;2022-11-11T19:34:10;9.40;99.90
18252;DHT22;26917;52.328;20.878;2022-11-11T19:37:16;9.50;99.90
18252;DHT22;26917;52.328;20.878;2022-11-11T19:40:09;9.40;99.90
18252;DHT22;26917;52.328;20.878;2022-11-11T19:42:58;9.40;99.90
18252;DHT22;26917;52.328;20.878;2022-11-11T19:45:48;9.40;99.90
18252;DHT22;26917;52.328;20.878;2022-11-11T19:48:54;9.40;99.90
18252;DHT22;26917;52.328;20.878;2022-11-11T19:52:04;9.50;99.90
18252;DHT22;26917;52.328;20.878;2022-11-11T19:54:53;9.40;99.90
18252;DHT22;26917;52.328;20.878;2022-11-11T19:58:08;9.40;99.90
18252;DHT22;26917;52.328;20.878;2022-11-11T20:01:25;9.50;99.90
18252;DHT22;26917;52.328;20.878;2022-11-11T20:16:54;9.50;99.90
18252;DHT22;26917;52.328;20.878;2022-11-11T20:20:03;9.50;99.90
18252;DHT22;26917;52.328;20.878;2022-11-11T20:23:16;9.50;99.90
18252;DHT22;26917;52.328;20.878;2022-11-11T20:26:10;9.50;99.90
18252;DHT22;26917;52.328;20.878;2022-11-11T20:29:18;9.50;99.90
18252;DHT22;26917;52.328;20.878;2022-11-11T20:32:42;9.50;99.90
18252;DHT22;26917;52.328;20.878;2022-11-11T20:43:03;9.50;99.90
18252;DHT22;26917;52.328;20.878;2022-11-11T21:03:04;9.60;99.90
18252;DHT22;26917;52.328;20.878;2022-11-11T21:06:03;9.50;99.90
18252;DHT22;26917;52.328;20.878;2022-11-11T21:21:38;9.60;99.90
18252;DHT22;26917;52.328;20.878;2022-11-11T21:33:14;9.60;99.90
18252;DHT22;26917;52.328;20.878;2022-11-11T21:40:44;9.70;99.90
18252;DHT22;26917;52.328;20.878;2022-11-11T21:43:45;9.60;99.90
18252;DHT22;26917;52.328;20.878;2022-11-11T21:46:58;9.60;99.90
18252;DHT22;26917;52.328;20.878;2022-11-11T21:59:26;9.60;99.90
18252;DHT22;26917;52.328;20.878;2022-11-11T23:10:09;9.70;99.90
18252;DHT22;26917;52.328;20.878;2022-11-11T23:30:19;9.70;99.90
18252;DHT22;26917;52.328;20.878;2022-11-11T23:37:37;9.70;99.90
